Time;durP1;ratioP1;P1;durP2;ratioP2;P2;SDS_P1;SDS_P2;PMS_P1;PMS_P2;Temp;Humidity;BMP_temperature;BMP_pressure;BME280_temperature;BME280_humidity;BME280_pressure;Samples;Min_cycle;Max_cycle;Signal;HPM_P1;HPM_P2
2023/03/11 00:00:49;;;;;;;0.00;0.00;;;;;;;16.46;43.53;100605.75;2112671;28;20063;-60
2023/03/11 00:01:51;;;;;;;0.00;0.00;;;;;;;16.42;43.46;100608.47;2111849;28;20134;-60
2023/03/11 00:02:56;;;;;;;0.10;0.10;;;;;;;16.46;43.45;100610.44;2107758;28;20047;-59
2023/03/11 00:04:00;;;;;;;0.00;0.00;;;;;;;16.44;43.60;100622.47;2112025;28;20135;-60
2023/03/11 00:05:01;;;;;;;0.10;0.10;;;;;;;16.43;43.49;100618.19;2104579;28;20398;-60
2023/03/11 00:06:06;;;;;;;0.00;0.00;;;;;;;16.42;43.49;100613.91;2107276;28;20126;-60
2023/03/11 00:07:09;;;;;;;0.00;0.00;;;;;;;16.44;43.64;100627.16;2103673;28;20098;-60
2023/03/11 00:08:15;;;;;;;0.00;0.00;;;;;;;16.46;43.55;100624.06;2102671;28;20124;-59
2023/03/11 00:09:16;;;;;;;0.00;0.00;;;;;;;16.42;43.52;100626.75;2102770;28;20574;-59
2023/03/11 00:10:21;;;;;;;0.10;0.10;;;;;;;16.44;43.68;100627.16;2112456;28;20055;-59
2023/03/11 00:11:24;;;;;;;0.03;0.03;;;;;;;16.42;43.63;100632.19;2114005;28;20127;-60
2023/03/11 00:12:27;;;;;;;0.00;0.00;;;;;;;16.42;43.62;100627.53;2111065;28;20060;-59
2023/03/11 00:13:29;;;;;;;0.10;0.10;;;;;;;16.42;43.57;100632.19;2104306;28;20052;-60
2023/03/11 00:14:33;;;;;;;0.10;0.10;;;;;;;16.41;43.46;100625.19;2104420;28;20116;-59
2023/03/11 00:15:37;;;;;;;0.10;0.10;;;;;;;16.42;43.41;100629.47;2105633;28;20442;-59
2023/03/11 00:16:40;;;;;;;0.10;0.10;;;;;;;16.40;43.46;100629.06;2110400;28;20051;-59
2023/03/11 00:17:41;;;;;;;0.10;0.10;;;;;;;16.41;43.47;100625.19;2109692;28;20150;-59
2023/03/11 00:18:44;;;;;;;0.10;0.10;;;;;;;16.41;43.46;100625.19;2112368;28;20056;-60
2023/03/11 00:19:46;;;;;;;0.08;0.08;;;;;;;16.39;43.56;100633.72;2113295;28;20423;-59
2023/03/11 00:20:49;;;;;;;0.10;0.10;;;;;;;16.41;43.62;100631.41;2113920;28;20066;-60
2023/03/11 00:21:51;;;;;;;0.10;0.10;;;;;;;16.41;43.40;100641.53;2114641;28;20047;-59
2023/03/11 00:22:54;;;;;;;0.00;0.00;;;;;;;16.38;43.43;100634.09;2104770;28;20056;-60
2023/03/11 00:23:59;;;;;;;0.08;0.08;;;;;;;16.39;43.46;100641.91;2091982;28;20485;-60
2023/03/11 00:25:01;;;;;;;0.03;0.03;;;;;;;16.38;43.53;100643.06;2093505;28;20064;-59
2023/03/11 00:26:04;;;;;;;0.00;0.00;;;;;;;16.39;43.51;100643.84;2109801;28;20561;-59
2023/03/11 00:27:06;;;;;;;0.00;0.00;;;;;;;16.38;43.30;100653.19;2110854;28;20048;-60
2023/03/11 00:28:09;;;;;;;0.00;0.00;;;;;;;16.37;43.56;100644.25;2114384;28;20462;-60
2023/03/11 00:29:12;;;;;;;0.00;0.00;;;;;;;16.38;43.50;100653.97;2113525;28;20508;-60
2023/03/11 00:30:19;;;;;;;0.00;0.00;;;;;;;16.37;43.38;100657.88;2112639;28;20115;-60
2023/03/11 00:31:25;;;;;;;0.00;0.00;;;;;;;16.36;43.56;100656.28;2112412;28;20055;-59
2023/03/11 00:32:27;;;;;;;0.00;0.00;;;;;;;16.30;43.44;100641.47;2112238;28;20051;-59
2023/03/11 00:33:30;;;;;;;0.00;0.00;;;;;;;16.36;43.50;100667.19;2113044;28;20063;-59
2023/03/11 00:34:32;;;;;;;0.00;0.00;;;;;;;16.35;43.44;100665.63;2114466;28;20402;-59
2023/03/11 00:35:36;;;;;;;0.10;0.10;;;;;;;16.36;43.36;100664.47;2105058;28;20109;-60
2023/03/11 00:36:38;;;;;;;0.03;0.03;;;;;;;16.35;43.44;100665.63;2105018;28;20056;-59
2023/03/11 00:37:41;;;;;;;0.08;0.08;;;;;;;16.33;43.30;100667.97;2114168;28;20044;-59
2023/03/11 00:38:44;;;;;;;0.10;0.10;;;;;;;16.36;43.42;100660.97;2112861;28;20127;-59
2023/03/11 00:39:47;;;;;;;0.05;0.05;;;;;;;16.35;43.33;100673.03;2112807;28;20715;-59
2023/03/11 00:40:50;;;;;;;0.00;0.00;;;;;;;16.35;43.24;100671.09;2114419;28;20519;-59
2023/03/11 00:41:52;;;;;;;0.00;0.00;;;;;;;16.35;43.38;100670.28;2112764;28;20512;-59
2023/03/11 00:42:55;;;;;;;0.10;0.10;;;;;;;16.35;43.33;100676.53;2113668;28;20838;-60
2023/03/11 00:43:57;;;;;;;0.10;0.10;;;;;;;16.32;43.30;100660.97;2113999;28;20485;-58
2023/03/11 00:45:00;;;;;;;0.00;0.00;;;;;;;16.35;43.27;100675.75;2112745;28;20055;-57
2023/03/11 00:46:05;;;;;;;0.05;0.05;;;;;;;16.35;43.45;100660.19;2110982;28;20123;-58
2023/03/11 00:47:08;;;;;;;0.10;0.10;;;;;;;16.34;43.32;100674.19;2112793;28;20047;-58
2023/03/11 00:48:11;;;;;;;0.10;0.10;;;;;;;16.33;43.28;100681.56;2112672;28;20413;-57
2023/03/11 00:49:13;;;;;;;0.10;0.10;;;;;;;16.32;43.45;100688.19;2105476;28;20545;-58
2023/03/11 00:50:19;;;;;;;0.00;0.00;;;;;;;16.34;43.43;100680.44;2105278;28;20044;-57
2023/03/11 00:51:22;;;;;;;0.00;0.00;;;;;;;16.32;43.49;100681.97;2107648;28;20047;-58
2023/03/11 00:52:24;;;;;;;0.03;0.03;;;;;;;16.32;43.30;100684.69;2114593;28;20052;-57
2023/03/11 00:53:27;;;;;;;0.03;0.03;;;;;;;16.33;43.30;100689.75;2112008;28;20096;-57
2023/03/11 00:54:29;;;;;;;0.03;0.03;;;;;;;16.32;43.24;100688.19;2112013;28;20473;-57
2023/03/11 00:55:34;;;;;;;0.00;0.00;;;;;;;16.33;43.42;100683.53;2114367;28;20059;-57
2023/03/11 00:56:40;;;;;;;0.00;0.00;;;;;;;16.30;43.44;100687.78;2111130;28;20532;-58
2023/03/11 00:57:44;;;;;;;0.00;0.00;;;;;;;16.27;43.42;100680.38;2101852;28;20060;-58
2023/03/11 00:58:46;;;;;;;0.00;0.00;;;;;;;16.30;43.20;100684.28;2099293;28;20112;-58
2023/03/11 00:59:49;;;;;;;0.00;0.00;;;;;;;16.31;43.48;100697.56;2105318;28;20044;-58
2023/03/11 01:00:50;;;;;;;0.08;0.08;;;;;;;16.30;43.39;100690.53;2103808;28;20828;-57
2023/03/11 01:01:55;;;;;;;0.00;0.00;;;;;;;16.31;43.33;100700.28;2105857;28;20109;-58
2023/03/11 01:02:58;;;;;;;0.10;0.10;;;;;;;16.30;43.14;100697.91;2109649;28;20051;-58
2023/03/11 01:04:01;;;;;;;0.00;0.00;;;;;;;16.30;43.35;100692.47;2112400;28;20054;-59
2023/03/11 01:05:04;;;;;;;0.10;0.10;;;;;;;16.30;43.41;100695.19;2113830;28;20100;-59
2023/03/11 01:06:07;;;;;;;0.03;0.03;;;;;;;16.28;43.15;100701.00;2099602;28;20044;-59
2023/03/11 01:07:09;;;;;;;0.10;0.10;;;;;;;16.29;43.37;100699.88;2101698;28;20101;-59
2023/03/11 01:08:13;;;;;;;0.05;0.05;;;;;;;16.29;43.10;100699.88;2103943;28;20052;-59
2023/03/11 01:09:15;;;;;;;0.10;0.10;;;;;;;16.28;43.37;100701.00;2101354;28;20053;-59
2023/03/11 01:10:18;;;;;;;0.10;0.10;;;;;;;16.27;43.37;100699.47;2096605;28;20497;-59
2023/03/11 01:11:24;;;;;;;0.05;0.05;;;;;;;16.29;43.35;100704.53;2102198;28;20127;-59
2023/03/11 01:12:31;;;;;;;0.03;0.03;;;;;;;16.26;43.43;100705.28;2107119;28;20056;-59
2023/03/11 01:13:36;;;;;;;0.00;0.00;;;;;;;16.26;43.36;100706.09;2104487;28;20060;-60
2023/03/11 01:14:44;;;;;;;0.00;0.00;;;;;;;16.25;43.31;100704.50;2094413;28;20049;-60
2023/03/11 01:15:50;;;;;;;0.00;0.00;;;;;;;16.25;43.30;100709.94;2097381;28;20105;-59
2023/03/11 01:16:54;;;;;;;0.00;0.00;;;;;;;16.26;43.29;100710.75;2108924;28;20055;-59
2023/03/11 01:17:57;;;;;;;0.00;0.00;;;;;;;16.24;43.40;100713.06;2113392;28;20082;-60
2023/03/11 01:18:59;;;;;;;0.03;0.03;;;;;;;16.25;43.36;100718.13;2113003;28;20104;-59
2023/03/11 01:20:04;;;;;;;0.03;0.03;;;;;;;16.26;43.07;100724.38;2114128;28;20489;-59
2023/03/11 01:21:06;;;;;;;0.00;0.00;;;;;;;16.25;43.26;100729.03;2113129;28;20496;-60
2023/03/11 01:22:09;;;;;;;0.00;0.00;;;;;;;16.26;43.36;100727.09;2112935;28;20474;-59
2023/03/11 01:23:13;;;;;;;0.00;0.00;;;;;;;16.25;43.34;100726.28;2103657;28;20142;-60
2023/03/11 01:24:15;;;;;;;0.03;0.03;;;;;;;16.24;43.27;100727.47;2095996;28;20049;-60
2023/03/11 01:25:22;;;;;;;0.00;0.00;;;;;;;16.25;43.09;100725.53;2104274;28;20138;-61
2023/03/11 01:26:24;;;;;;;0.00;0.00;;;;;;;16.24;43.19;100730.19;2104735;28;20083;-59
2023/03/11 01:27:30;;;;;;;0.10;0.10;;;;;;;16.23;43.48;100723.19;2104346;28;20079;-59
2023/03/11 01:28:39;;;;;;;0.10;0.10;;;;;;;16.22;43.13;100726.31;2112286;28;20150;-59
2023/03/11 01:29:41;;;;;;;0.00;0.00;;;;;;;16.22;43.34;100727.06;2111541;28;20487;-59
2023/03/11 01:30:44;;;;;;;0.08;0.08;;;;;;;16.22;43.34;100729.78;2104916;28;20048;-59
2023/03/11 01:31:46;;;;;;;0.00;0.00;;;;;;;16.23;43.21;100733.31;2105771;28;20055;-60
2023/03/11 01:32:51;;;;;;;0.00;0.00;;;;;;;16.24;43.15;100735.66;2113952;28;20055;-59
2023/03/11 01:33:53;;;;;;;0.00;0.00;;;;;;;16.22;43.33;100729.03;2111698;28;20114;-60
2023/03/11 01:34:56;;;;;;;0.00;0.00;;;;;;;16.23;43.10;100738.75;2103582;28;20051;-59
2023/03/11 01:36:22;;;;;;;0.00;0.00;;;;;;;16.21;43.35;100741.06;2097844;28;20060;-59
2023/03/11 01:37:24;;;;;;;0.00;0.00;;;;;;;16.18;43.29;100745.34;2111472;28;20050;-60
2023/03/11 01:38:27;;;;;;;0.00;0.00;;;;;;;16.19;43.13;100744.16;2111878;28;20044;-60
2023/03/11 01:39:29;;;;;;;0.00;0.00;;;;;;;16.21;43.13;100735.63;2113721;28;20082;-60
2023/03/11 01:40:35;;;;;;;0.00;0.00;;;;;;;16.23;43.26;100744.19;2111666;28;20055;-60
2023/03/11 01:41:43;;;;;;;0.00;0.00;;;;;;;16.18;43.24;100739.91;2109459;28;20048;-59
2023/03/11 01:42:46;;;;;;;0.13;0.13;;;;;;;16.20;43.10;100745.75;2096375;28;20048;-59
2023/03/11 01:43:53;;;;;;;0.00;0.00;;;;;;;16.20;43.21;100740.31;2102171;28;20086;-59
2023/03/11 01:44:59;;;;;;;0.00;0.00;;;;;;;16.16;43.26;100734.03;2098292;28;20052;-59
2023/03/11 01:46:13;;;;;;;0.00;0.00;;;;;;;16.13;43.15;100748.41;2104874;28;20413;-60
2023/03/11 01:47:38;;;;;;;0.00;0.00;;;;;;;16.09;43.34;100749.56;2112519;28;20437;-60
2023/03/11 01:48:45;;;;;;;0.13;0.13;;;;;;;16.15;43.21;100743.38;2104463;28;20051;-60
2023/03/11 01:49:48;;;;;;;0.00;0.00;;;;;;;16.15;43.20;100748.81;2096650;28;20502;-59
2023/03/11 01:50:50;;;;;;;0.00;0.00;;;;;;;16.16;43.16;100744.94;2104725;28;20047;-59
2023/03/11 01:51:57;;;;;;;0.30;0.30;;;;;;;16.17;43.16;100743.75;2101876;28;20063;-60
2023/03/11 01:52:59;;;;;;;0.00;0.00;;;;;;;16.16;43.37;100747.66;2102874;28;20055;-59
2023/03/11 01:54:05;;;;;;;0.08;0.08;;;;;;;16.17;43.25;100746.47;2096227;28;20093;-59
2023/03/11 01:55:08;;;;;;;0.00;0.00;;;;;;;16.16;43.58;100750.38;2101913;28;20048;-60
2023/03/11 01:56:12;;;;;;;0.00;0.00;;;;;;;16.16;42.94;100746.88;2102384;28;20044;-60
2023/03/11 01:57:15;;;;;;;0.10;0.10;;;;;;;16.16;43.26;100750.38;2096746;28;20056;-59
2023/03/11 01:58:22;;;;;;;0.00;0.00;;;;;;;16.18;43.29;100753.50;2094539;28;20105;-61
2023/03/11 01:59:29;;;;;;;0.05;0.05;;;;;;;16.16;43.23;100753.09;2098083;28;20217;-60
2023/03/11 02:00:33;;;;;;;0.10;0.10;;;;;;;16.15;43.12;100748.81;2096315;28;20117;-60
2023/03/11 02:01:40;;;;;;;0.10;0.10;;;;;;;16.16;43.16;100750.38;2101440;28;20132;-59
2023/03/11 02:02:50;;;;;;;0.00;0.00;;;;;;;16.15;43.26;100754.28;2104715;28;20086;-59
2023/03/11 02:03:56;;;;;;;0.10;0.10;;;;;;;16.13;43.17;100748.41;2096099;28;20600;-59
2023/03/11 02:05:01;;;;;;;0.08;0.08;;;;;;;16.13;42.75;100751.13;2095753;28;20072;-59
2023/03/11 02:06:08;;;;;;;0.03;0.03;;;;;;;16.15;43.17;100753.50;2111070;28;20048;-59
2023/03/11 02:07:11;;;;;;;0.00;0.00;;;;;;;16.13;43.16;100748.41;2104097;28;20087;-59
2023/03/11 02:08:14;;;;;;;0.00;0.00;;;;;;;16.14;43.29;100747.25;2094969;28;20080;-60
2023/03/11 02:09:17;;;;;;;0.00;0.00;;;;;;;16.14;43.16;100751.94;2093906;28;20385;-59
2023/03/11 02:10:20;;;;;;;0.00;0.00;;;;;;;16.14;43.04;100751.94;2103289;28;20048;-59
2023/03/11 02:11:25;;;;;;;0.10;0.10;;;;;;;16.14;42.96;100749.97;2098087;28;20048;-59
2023/03/11 02:12:34;;;;;;;0.10;0.10;;;;;;;16.14;43.14;100758.16;2088112;28;20096;-60
2023/03/11 02:13:38;;;;;;;0.05;0.05;;;;;;;16.13;43.16;100750.34;2094947;28;20080;-60
2023/03/11 02:14:44;;;;;;;0.10;0.10;;;;;;;16.14;43.07;100752.69;2108543;28;20516;-59
2023/03/11 02:15:46;;;;;;;0.00;0.00;;;;;;;16.12;43.01;100752.31;2108057;28;20082;-59
2023/03/11 02:16:49;;;;;;;0.00;0.00;;;;;;;16.12;43.21;100757.75;2104295;28;20106;-59
2023/03/11 02:17:52;;;;;;;0.05;0.05;;;;;;;16.14;43.16;100766.31;2096152;28;20048;-59
2023/03/11 02:19:00;;;;;;;0.10;0.10;;;;;;;16.14;43.13;100752.69;2090247;28;20057;-59
2023/03/11 02:20:15;;;;;;;0.08;0.08;;;;;;;16.10;43.00;100757.34;2088383;28;20599;-60
2023/03/11 02:21:24;;;;;;;0.00;0.00;;;;;;;16.10;43.20;100751.91;2102862;28;20407;-59
2023/03/11 02:22:28;;;;;;;0.03;0.03;;;;;;;16.09;43.21;100750.31;2102400;28;20044;-59
2023/03/11 02:23:38;;;;;;;0.00;0.00;;;;;;;16.11;43.16;100755.41;2104787;28;20076;-60
2023/03/11 02:24:44;;;;;;;;;;;;;;;15.85;43.54;100753.69;2103147;28;20482;-59
2023/03/11 02:25:54;;;;;;;0.08;0.08;;;;;;;15.99;43.33;100761.16;2096677;28;19967;-60
2023/03/11 02:26:59;;;;;;;0.10;0.10;;;;;;;16.02;43.14;100758.47;2097481;28;20064;-60
2023/03/11 02:28:06;;;;;;;0.00;0.00;;;;;;;16.04;43.16;100760.81;2095796;28;20053;-60
2023/03/11 02:29:10;;;;;;;0.00;0.00;;;;;;;16.06;43.13;100766.66;2088419;28;20075;-61
2023/03/11 02:30:15;;;;;;;0.00;0.00;;;;;;;16.06;42.93;100766.66;2087554;28;20052;-60
2023/03/11 02:31:18;;;;;;;0.00;0.00;;;;;;;16.05;43.13;100763.16;2088319;28;20056;-60
2023/03/11 02:32:21;;;;;;;0.08;0.08;;;;;;;16.06;43.08;100761.22;2094452;28;20970;-60
2023/03/11 02:33:28;;;;;;;0.00;0.00;;;;;;;16.07;43.07;100771.72;2095748;28;20517;-60
2023/03/11 02:34:33;;;;;;;0.00;0.00;;;;;;;16.06;43.35;100772.88;2104134;28;20500;-60
2023/03/11 02:35:35;;;;;;;0.00;0.00;;;;;;;16.07;43.15;100774.44;2113357;28;20556;-60
2023/03/11 02:36:40;;;;;;;0.00;0.00;;;;;;;16.08;43.12;100777.94;2103802;28;20085;-59
2023/03/11 02:37:47;;;;;;;0.00;0.00;;;;;;;16.06;43.24;100772.09;2093027;28;20048;-59
2023/03/11 02:38:50;;;;;;;0.00;0.00;;;;;;;16.07;43.29;100770.94;2096243;28;20045;-60
2023/03/11 02:39:54;;;;;;;0.00;0.00;;;;;;;16.07;43.15;100773.66;2100870;28;20621;-59
2023/03/11 02:40:58;;;;;;;0.00;0.00;;;;;;;16.07;43.24;100769.00;2104323;28;20043;-60
2023/03/11 02:42:06;;;;;;;0.00;0.00;;;;;;;16.06;43.02;100772.88;2104946;28;20043;-60
2023/03/11 02:43:11;;;;;;;0.00;0.00;;;;;;;16.06;43.18;100772.09;2103866;28;20566;-60
2023/03/11 02:44:15;;;;;;;0.00;0.00;;;;;;;16.06;42.98;100772.09;2096534;28;20053;-60
2023/03/11 02:45:21;;;;;;;0.00;0.00;;;;;;;16.07;43.13;100765.50;2096037;28;20084;-60
2023/03/11 02:46:24;;;;;;;0.00;0.00;;;;;;;16.05;43.08;100770.53;2093866;28;20425;-60
2023/03/11 02:47:27;;;;;;;0.00;0.00;;;;;;;16.06;43.00;100766.66;2095374;28;20059;-60
2023/03/11 02:48:38;;;;;;;0.00;0.00;;;;;;;16.06;43.18;100772.09;2087708;28;20124;-60
2023/03/11 02:49:40;;;;;;;0.00;0.00;;;;;;;16.03;43.15;100770.91;2097174;28;20044;-59
2023/03/11 02:50:45;;;;;;;0.13;0.13;;;;;;;16.07;43.12;100774.44;2111190;28;20412;-60
2023/03/11 02:51:51;;;;;;;0.10;0.10;;;;;;;16.05;43.09;100770.53;2103869;28;20055;-59
2023/03/11 02:52:53;;;;;;;0.00;0.00;;;;;;;16.05;43.07;100770.53;2104323;28;20598;-60
2023/03/11 02:54:01;;;;;;;0.05;0.05;;;;;;;16.05;43.14;100771.31;2102096;28;20168;-59
2023/03/11 02:55:05;;;;;;;0.00;0.00;;;;;;;16.01;42.93;100764.28;2096160;28;20378;-59
2023/03/11 02:56:08;;;;;;;0.03;0.03;;;;;;;16.04;43.09;100772.50;2095948;28;20513;-59
2023/03/11 02:57:12;;;;;;;0.00;0.00;;;;;;;16.07;43.04;100768.22;2102302;28;20044;-60
2023/03/11 02:58:15;;;;;;;0.00;0.00;;;;;;;16.05;43.07;100765.88;2096649;28;20520;-59
2023/03/11 02:59:18;;;;;;;0.00;0.00;;;;;;;16.05;42.94;100765.88;2097156;28;20084;-59
2023/03/11 03:00:21;;;;;;;0.10;0.10;;;;;;;16.05;42.95;100765.09;2097176;28;20060;-59
2023/03/11 03:01:32;;;;;;;0.00;0.00;;;;;;;16.03;43.26;100768.19;2102484;28;20557;-59
2023/03/11 03:02:34;;;;;;;0.00;0.00;;;;;;;16.03;42.95;100773.63;2095717;28;20143;-60
2023/03/11 03:03:37;;;;;;;0.00;0.00;;;;;;;16.04;43.04;100763.53;2084957;28;20060;-59
2023/03/11 03:04:40;;;;;;;0.10;0.10;;;;;;;16.04;42.96;100769.75;2088585;28;20045;-59
2023/03/11 03:05:42;;;;;;;0.00;0.00;;;;;;;16.04;43.10;100775.22;2095832;28;20044;-59
2023/03/11 03:06:45;;;;;;;0.00;0.00;;;;;;;16.04;43.15;100777.94;2092506;28;20060;-60
2023/03/11 03:07:50;;;;;;;0.10;0.10;;;;;;;16.04;43.06;100777.16;2088451;28;20060;-59
2023/03/11 03:08:53;;;;;;;0.00;0.00;;;;;;;16.03;42.91;100775.59;2096193;28;20135;-59
2023/03/11 03:09:55;;;;;;;0.10;0.10;;;;;;;16.04;42.96;100779.88;2087356;28;20048;-59
2023/03/11 03:11:00;;;;;;;0.00;0.00;;;;;;;16.04;43.03;100775.22;2095514;28;20553;-59
2023/03/11 03:12:03;;;;;;;0.00;0.00;;;;;;;16.04;43.04;100780.66;2101168;28;20051;-60
2023/03/11 03:13:08;;;;;;;0.00;0.00;;;;;;;16.04;42.75;100788.84;2099700;28;20585;-59
2023/03/11 03:14:10;;;;;;;0.00;0.00;;;;;;;16.03;43.01;100789.97;2096020;28;20044;-60
2023/03/11 03:15:14;;;;;;;0.00;0.00;;;;;;;16.03;42.95;100784.53;2103658;28;20524;-59
2023/03/11 03:16:17;;;;;;;0.00;0.00;;;;;;;16.01;42.93;100784.13;2111521;28;20047;-59
2023/03/11 03:17:20;;;;;;;0.05;0.05;;;;;;;16.04;43.21;100785.31;2112429;28;20059;-59
2023/03/11 03:18:22;;;;;;;0.00;0.00;;;;;;;16.03;43.03;100787.25;2103933;28;20048;-60
2023/03/11 03:19:25;;;;;;;0.10;0.10;;;;;;;16.03;43.08;100789.97;2104002;28;20083;-59
2023/03/11 03:20:28;;;;;;;0.03;0.03;;;;;;;16.03;42.97;100786.47;2095309;28;20060;-59
2023/03/11 03:21:34;;;;;;;0.05;0.05;;;;;;;16.02;43.01;100788.41;2094905;28;20059;-59
2023/03/11 03:22:36;;;;;;;0.00;0.00;;;;;;;16.03;43.11;100789.22;2087591;28;20041;-59
2023/03/11 03:23:39;;;;;;;0.08;0.08;;;;;;;16.02;42.86;100785.69;2102930;28;20063;-59
2023/03/11 03:24:41;;;;;;;0.00;0.00;;;;;;;16.02;43.11;100791.13;2099698;28;20080;-59
2023/03/11 03:25:45;;;;;;;0.00;0.00;;;;;;;16.04;42.88;100794.28;2103071;28;20512;-59
2023/03/11 03:26:47;;;;;;;0.10;0.10;;;;;;;16.02;42.88;100791.13;2095758;28;20373;-59
2023/03/11 03:27:50;;;;;;;0.00;0.00;;;;;;;16.02;43.16;100788.41;2095497;28;20182;-59
2023/03/11 03:28:54;;;;;;;0.00;0.00;;;;;;;16.02;42.91;100788.41;2100700;28;20138;-59
2023/03/11 03:29:57;;;;;;;0.00;0.00;;;;;;;16.02;42.84;100791.13;2095578;28;20052;-58
2023/03/11 03:31:04;;;;;;;0.05;0.05;;;;;;;16.02;42.97;100799.31;2103400;28;20052;-59
2023/03/11 03:32:06;;;;;;;0.03;0.03;;;;;;;16.01;42.93;100795.03;2103825;28;20104;-59
2023/03/11 03:33:09;;;;;;;0.10;0.10;;;;;;;16.01;42.95;100789.59;2095624;28;20053;-59
2023/03/11 03:34:11;;;;;;;0.00;0.00;;;;;;;16.01;42.85;100800.47;2095493;28;20136;-60
2023/03/11 03:35:14;;;;;;;0.00;0.00;;;;;;;16.01;42.70;100795.03;2087390;28;20141;-59
2023/03/11 03:36:30;;;;;;;0.10;0.10;;;;;;;15.98;43.10;100798.50;2097483;28;20127;-59
2023/03/11 03:37:38;;;;;;;0.00;0.00;;;;;;;15.99;42.83;100800.06;2099574;28;20059;-58
2023/03/11 03:38:40;;;;;;;0.00;0.00;;;;;;;15.97;42.89;100802.38;2096243;28;20059;-59
2023/03/11 03:39:43;;;;;;;0.08;0.08;;;;;;;15.99;43.04;100810.97;2104077;28;20075;-59
2023/03/11 03:40:47;;;;;;;0.08;0.08;;;;;;;15.99;43.03;100805.50;2100327;28;20048;-59
2023/03/11 03:41:53;;;;;;;0.03;0.03;;;;;;;16.00;42.86;100811.72;2095865;28;20052;-59
2023/03/11 03:42:57;;;;;;;0.00;0.00;;;;;;;15.99;42.91;100810.97;2103172;28;20045;-59
2023/03/11 03:44:02;;;;;;;0.10;0.10;;;;;;;16.00;42.93;100807.06;2100031;28;20134;-59
2023/03/11 03:45:07;;;;;;;0.10;0.10;;;;;;;16.00;43.06;100817.97;2095131;28;20055;-59
2023/03/11 03:46:10;;;;;;;0.03;0.03;;;;;;;15.98;42.93;100814.81;2103427;28;20516;-59
2023/03/11 03:47:16;;;;;;;0.10;0.10;;;;;;;15.99;42.87;100810.16;2101610;28;20055;-59
2023/03/11 03:48:19;;;;;;;0.10;0.10;;;;;;;15.99;42.96;100816.41;2103392;28;20088;-59
2023/03/11 03:49:21;;;;;;;0.00;0.00;;;;;;;15.99;43.02;100815.63;2094665;28;20106;-60
2023/03/11 03:50:24;;;;;;;0.00;0.00;;;;;;;15.98;42.99;100817.53;2091001;28;20125;-59
2023/03/11 03:51:29;;;;;;;0.00;0.00;;;;;;;15.98;43.03;100825.72;2087658;28;20056;-58
2023/03/11 03:52:39;;;;;;;0.20;0.20;;;;;;;15.97;42.99;100829.59;2088439;28;20124;-58
2023/03/11 03:53:42;;;;;;;0.00;0.00;;;;;;;15.94;42.83;100824.91;2092277;28;20055;-59
2023/03/11 03:54:45;;;;;;;0.13;0.13;;;;;;;15.98;42.93;100831.16;2105158;28;20052;-59
2023/03/11 03:55:49;;;;;;;0.17;0.17;;;;;;;15.98;42.93;100828.44;2105427;28;20076;-60
2023/03/11 03:56:53;;;;;;;0.00;0.00;;;;;;;15.98;42.90;100831.16;2097304;28;20060;-59
2023/03/11 03:57:55;;;;;;;0.00;0.00;;;;;;;15.97;42.92;100829.59;2102070;28;20057;-59
2023/03/11 03:59:02;;;;;;;0.47;0.47;;;;;;;15.98;42.90;100833.13;2105177;28;20052;-60
2023/03/11 04:00:12;;;;;;;0.00;0.00;;;;;;;15.95;42.98;100829.19;2092999;28;20044;-59
2023/03/11 04:01:20;;;;;;;0.00;0.00;;;;;;;15.96;42.94;100830.00;2094940;28;20464;-59
2023/03/11 04:02:22;;;;;;;0.00;0.00;;;;;;;15.96;43.00;100838.94;2105810;28;20497;-59
2023/03/11 04:03:28;;;;;;;0.00;0.00;;;;;;;15.97;42.91;100843.22;2105120;28;20040;-59
2023/03/11 04:04:34;;;;;;;0.00;0.00;;;;;;;15.95;42.94;100842.81;2097944;28;20041;-59
2023/03/11 04:05:37;;;;;;;0.00;0.00;;;;;;;15.96;42.86;100838.94;2105540;28;20122;-59
2023/03/11 04:06:39;;;;;;;0.10;0.10;;;;;;;15.96;42.83;100844.41;2105174;28;20048;-59
2023/03/11 04:07:42;;;;;;;0.00;0.00;;;;;;;15.96;42.84;100844.41;2096331;28;20049;-59
2023/03/11 04:08:45;;;;;;;0.03;0.03;;;;;;;15.96;42.84;100849.84;2096824;28;20093;-59
2023/03/11 04:09:49;;;;;;;0.05;0.05;;;;;;;15.96;43.08;100843.59;2088181;28;20543;-59
2023/03/11 04:10:57;;;;;;;0.10;0.10;;;;;;;15.95;42.75;100858.38;2089083;28;20101;-59
2023/03/11 04:12:01;;;;;;;0.00;0.00;;;;;;;15.93;42.82;100850.59;2103649;28;20089;-59
2023/03/11 04:13:04;;;;;;;0.00;0.00;;;;;;;15.94;42.95;100854.88;2097151;28;20086;-59
2023/03/11 04:14:08;;;;;;;0.00;0.00;;;;;;;15.95;42.86;100856.44;2101833;28;20048;-59
2023/03/11 04:15:17;;;;;;;0.00;0.00;;;;;;;15.93;43.08;100856.03;2098124;28;20486;-59
2023/03/11 04:16:22;;;;;;;0.00;0.00;;;;;;;15.94;42.96;100860.31;2098093;28;20048;-59
2023/03/11 04:17:27;;;;;;;0.35;0.35;;;;;;;15.94;43.03;100857.59;2103786;28;20429;-59
2023/03/11 04:18:31;;;;;;;0.10;0.10;;;;;;;15.94;42.83;100854.88;2089054;28;20045;-59
2023/03/11 04:19:32;;;;;;;0.10;0.10;;;;;;;15.94;42.96;100863.03;2096935;28;20044;-59
2023/03/11 04:20:38;;;;;;;0.00;0.00;;;;;;;15.95;42.88;100863.84;2097009;28;20528;-59
2023/03/11 04:21:40;;;;;;;0.08;0.08;;;;;;;15.94;42.79;100868.50;2097020;28;20056;-59
2023/03/11 04:22:43;;;;;;;0.00;0.00;;;;;;;15.91;42.98;100863.78;2100984;28;20044;-59
2023/03/11 04:23:45;;;;;;;0.10;0.10;;;;;;;15.95;42.94;100872.00;2105265;28;20089;-59
2023/03/11 04:24:50;;;;;;;0.05;0.05;;;;;;;15.94;42.77;100873.13;2092823;28;20083;-60
2023/03/11 04:25:52;;;;;;;0.00;0.00;;;;;;;15.94;42.74;100875.88;2090401;28;20045;-59
2023/03/11 04:26:55;;;;;;;0.00;0.00;;;;;;;15.95;42.88;100872.00;2093613;28;20049;-59
2023/03/11 04:27:57;;;;;;;0.10;0.10;;;;;;;15.94;42.74;100873.13;2102316;28;20181;-59
2023/03/11 04:29:00;;;;;;;0.03;0.03;;;;;;;15.93;42.77;100872.38;2097501;28;20229;-59
2023/03/11 04:30:09;;;;;;;0.00;0.00;;;;;;;15.94;42.79;100870.41;2096788;28;20113;-59
2023/03/11 04:31:12;;;;;;;0.10;0.10;;;;;;;15.92;42.99;100876.25;2104398;28;20052;-59
2023/03/11 04:32:14;;;;;;;0.00;0.00;;;;;;;15.92;42.75;100878.97;2104233;28;20105;-59
2023/03/11 04:33:18;;;;;;;0.00;0.00;;;;;;;15.93;43.00;100872.38;2105377;28;20051;-59
2023/03/11 04:34:20;;;;;;;0.08;0.08;;;;;;;15.92;42.78;100878.97;2096806;28;20098;-59
2023/03/11 04:35:24;;;;;;;0.00;0.00;;;;;;;15.93;42.76;100875.09;2088594;28;20056;-59
2023/03/11 04:36:26;;;;;;;0.00;0.00;;;;;;;15.93;42.96;100882.47;2096949;28;20151;-59
2023/03/11 04:37:29;;;;;;;0.00;0.00;;;;;;;15.93;42.87;100877.03;2109128;28;20484;-59
2023/03/11 04:38:31;;;;;;;0.08;0.08;;;;;;;15.90;42.82;100872.34;2088540;28;20449;-59
2023/03/11 04:39:34;;;;;;;0.05;0.05;;;;;;;15.92;42.71;100881.69;2096001;28;20072;-60
2023/03/11 04:40:36;;;;;;;0.00;0.00;;;;;;;15.92;42.92;100878.97;2091011;28;20415;-59
2023/03/11 04:41:39;;;;;;;0.00;0.00;;;;;;;15.92;42.96;100884.41;2096468;28;20489;-59
2023/03/11 04:42:43;;;;;;;0.00;0.00;;;;;;;15.91;42.77;100871.97;2096249;28;20053;-60
2023/03/11 04:43:46;;;;;;;0.03;0.03;;;;;;;15.91;42.70;100882.06;2095760;28;20501;-59
2023/03/11 04:44:48;;;;;;;0.00;0.00;;;;;;;15.92;42.71;100881.69;2097022;28;20056;-59
2023/03/11 04:45:52;;;;;;;0.00;0.00;;;;;;;15.93;42.62;100886.00;2104670;28;20059;-60
2023/03/11 04:46:54;;;;;;;0.00;0.00;;;;;;;15.91;42.85;100885.56;2098780;28;20048;-59
2023/03/11 04:47:58;;;;;;;0.10;0.10;;;;;;;15.91;42.78;100884.78;2088365;28;20049;-58
2023/03/11 04:49:00;;;;;;;0.03;0.03;;;;;;;15.90;42.85;100894.88;2085752;28;20057;-59
2023/03/11 04:50:04;;;;;;;0.00;0.00;;;;;;;15.92;43.08;100894.53;2096610;28;20056;-59
2023/03/11 04:51:06;;;;;;;0.00;0.00;;;;;;;15.91;42.74;100893.75;2096636;28;20098;-59
2023/03/11 04:52:09;;;;;;;0.10;0.10;;;;;;;15.91;42.92;100896.47;2093851;28;20055;-59
2023/03/11 04:53:12;;;;;;;0.00;0.00;;;;;;;15.91;42.74;100901.91;2095822;28;20083;-59
2023/03/11 04:54:14;;;;;;;0.05;0.05;;;;;;;15.91;42.87;100891.03;2104534;28;20048;-59
2023/03/11 04:55:16;;;;;;;0.00;0.00;;;;;;;15.88;42.78;100896.44;2103606;28;20100;-59
2023/03/11 04:56:19;;;;;;;0.00;0.00;;;;;;;15.91;42.77;100896.47;2101815;28;20048;-59
2023/03/11 04:57:22;;;;;;;0.00;0.00;;;;;;;15.90;42.75;100897.59;2102447;28;20048;-59
2023/03/11 04:58:24;;;;;;;0.10;0.10;;;;;;;15.91;42.78;100901.13;2104537;28;20056;-59